createdAt,value
2022-11-28T00:01:22.672Z,9.32
2022-11-28T00:03:50.302Z,9.02
2022-11-28T00:06:17.994Z,9.28
2022-11-28T00:08:45.467Z,9.23
2022-11-28T00:11:13.999Z,9.30
2022-11-28T00:13:41.458Z,9.23
2022-11-28T00:16:09.399Z,9.13
2022-11-28T00:18:37.018Z,9.32
2022-11-28T00:21:06.223Z,9.30
2022-11-28T00:23:33.739Z,9.31
2022-11-28T00:26:11.385Z,9.29
2022-11-28T00:28:38.745Z,9.21
2022-11-28T00:31:06.521Z,9.13
2022-11-28T00:33:33.950Z,9.12
2022-11-28T00:36:02.158Z,9.19
2022-11-28T00:38:29.749Z,9.50
2022-11-28T00:41:07.023Z,8.87
2022-11-28T00:43:34.657Z,8.96
2022-11-28T00:46:02.752Z,9.01
2022-11-28T00:48:30.157Z,9.12
2022-11-28T00:51:05.519Z,9.04
2022-11-28T00:53:32.839Z,9.27
2022-11-28T00:56:00.430Z,9.03
2022-11-28T00:58:27.745Z,8.85
2022-11-28T01:00:55.146Z,8.90
2022-11-28T01:03:22.782Z,9.18
2022-11-28T01:05:50.105Z,9.19
2022-11-28T01:08:17.447Z,9.43
2022-11-28T01:10:45.307Z,9.20
2022-11-28T01:13:12.634Z,9.00
2022-11-28T01:15:40.919Z,8.87
2022-11-28T01:18:08.849Z,9.02
2022-11-28T01:20:36.179Z,9.11
2022-11-28T01:23:03.545Z,8.72
2022-11-28T01:25:31.172Z,8.53
2022-11-28T01:27:58.487Z,8.56
2022-11-28T01:30:25.809Z,8.98
2022-11-28T01:32:53.438Z,8.95
2022-11-28T01:35:20.771Z,9.09
2022-11-28T01:37:48.106Z,9.01
2022-11-28T01:40:15.663Z,9.18
2022-11-28T01:42:42.988Z,9.09
2022-11-28T01:45:24.151Z,8.98
2022-11-28T01:47:52.120Z,9.00
2022-11-28T01:50:19.731Z,9.21
2022-11-28T01:52:48.232Z,9.10
2022-11-28T01:55:15.830Z,9.13
2022-11-28T01:57:43.156Z,8.94
2022-11-28T02:00:16.958Z,9.03
2022-11-28T02:02:47.909Z,9.15
2022-11-28T02:05:16.360Z,8.96
2022-11-28T02:07:44.175Z,8.96
2022-11-28T02:10:13.967Z,9.03
2022-11-28T02:13:09.047Z,9.05
2022-11-28T02:15:39.169Z,9.03
2022-11-28T02:18:29.065Z,8.94
2022-11-28T02:21:55.016Z,8.49
2022-11-28T02:24:57.787Z,8.74
2022-11-28T02:27:38.787Z,8.78
2022-11-28T02:30:12.995Z,8.99
2022-11-28T02:32:53.033Z,8.81
2022-11-28T02:35:44.903Z,8.86
2022-11-28T02:38:30.703Z,8.74
2022-11-28T02:41:06.987Z,8.73
2022-11-28T02:43:52.395Z,8.43
2022-11-28T02:46:27.638Z,8.64
2022-11-28T02:49:14.651Z,8.39
2022-11-28T02:51:44.743Z,8.60
2022-11-28T02:54:13.042Z,8.44
2022-11-28T02:56:50.014Z,8.37
2022-11-28T02:59:36.506Z,8.39
2022-11-28T03:02:28.852Z,8.45
2022-11-28T03:05:17.927Z,8.40
2022-11-28T03:08:04.176Z,8.46
2022-11-28T03:10:45.083Z,8.38
2022-11-28T03:13:32.078Z,8.37
2022-11-28T03:16:23.183Z,8.23
2022-11-28T03:19:02.945Z,8.36
2022-11-28T03:21:33.752Z,8.46
2022-11-28T03:24:02.963Z,8.46
2022-11-28T03:26:45.337Z,8.49
2022-11-28T03:29:16.387Z,8.56
2022-11-28T03:31:47.939Z,8.44
2022-11-28T03:34:16.636Z,8.44
2022-11-28T03:37:07.226Z,8.49
2022-11-28T03:39:37.124Z,8.53
2022-11-28T03:42:10.603Z,8.54
2022-11-28T03:45:00.880Z,8.41
2022-11-28T03:47:31.401Z,8.46
2022-11-28T03:50:01.702Z,8.54
2022-11-28T03:52:32.448Z,8.52
2022-11-28T03:55:02.222Z,8.51
2022-11-28T03:57:35.534Z,8.49
2022-11-28T04:00:08.141Z,8.52
2022-11-28T04:02:46.652Z,8.60
2022-11-28T04:05:46.635Z,8.78
2022-11-28T04:08:18.087Z,8.38
2022-11-28T04:10:57.057Z,8.57
2022-11-28T04:13:43.857Z,8.67
2022-11-28T04:16:21.853Z,8.60
2022-11-28T04:19:06.554Z,8.84
2022-11-28T04:22:21.905Z,8.78
2022-11-28T04:24:52.157Z,8.66
2022-11-28T04:27:24.239Z,8.60
2022-11-28T04:29:53.967Z,8.46
2022-11-28T04:32:21.769Z,8.46
2022-11-28T04:34:52.431Z,8.51
2022-11-28T04:37:19.779Z,8.43
2022-11-28T04:39:48.087Z,8.52
2022-11-28T04:42:17.823Z,8.37
2022-11-28T04:44:54.665Z,8.59
2022-11-28T04:47:22.770Z,8.60
2022-11-28T04:49:50.206Z,8.76
2022-11-28T04:52:24.891Z,8.45
2022-11-28T04:55:10.299Z,8.21
2022-11-28T04:57:39.328Z,8.32
2022-11-28T05:00:13.071Z,8.43
2022-11-28T05:02:40.988Z,8.57
2022-11-28T05:05:10.147Z,8.34
2022-11-28T05:07:37.528Z,8.68
2022-11-28T05:10:06.099Z,8.41
2022-11-28T05:12:33.697Z,8.44
2022-11-28T05:15:01.004Z,8.44
2022-11-28T05:17:28.350Z,8.50
2022-11-28T05:19:55.970Z,8.23
2022-11-28T05:22:23.341Z,8.50
2022-11-28T05:24:50.727Z,8.87
2022-11-28T05:27:18.319Z,8.82
2022-11-28T05:29:51.971Z,8.63
2022-11-28T05:32:20.207Z,8.66
2022-11-28T05:34:47.599Z,8.66
2022-11-28T05:37:14.944Z,8.66
2022-11-28T05:39:42.803Z,8.41
2022-11-28T05:42:10.299Z,7.86
2022-11-28T05:44:37.659Z,8.24
2022-11-28T05:47:05.290Z,7.88
2022-11-28T05:49:32.596Z,8.14
2022-11-28T05:52:00.094Z,8.35
2022-11-28T05:54:27.713Z,8.45
2022-11-28T05:56:55.057Z,8.38
2022-11-28T05:59:22.412Z,8.31
2022-11-28T06:01:50.011Z,8.23
2022-11-28T06:04:17.672Z,8.39
2022-11-28T06:06:45.204Z,8.45
2022-11-28T06:09:12.698Z,8.46
2022-11-28T06:11:40.370Z,8.46
2022-11-28T06:14:07.685Z,8.53
2022-11-28T06:16:35.042Z,8.58
2022-11-28T06:19:03.825Z,8.48
2022-11-28T06:21:31.606Z,8.54
2022-11-28T06:23:59.305Z,8.66
2022-11-28T06:26:27.412Z,8.40
2022-11-28T06:28:58.258Z,8.40
2022-11-28T06:31:30.355Z,8.40
2022-11-28T06:33:58.350Z,8.49
2022-11-28T06:36:26.418Z,8.40
2022-11-28T06:38:54.282Z,8.21
2022-11-28T06:41:24.519Z,8.54
2022-11-28T06:43:51.871Z,8.54
2022-11-28T06:46:20.497Z,8.53
2022-11-28T06:48:49.085Z,8.44
2022-11-28T06:51:16.501Z,8.52
2022-11-28T06:53:43.837Z,8.75
2022-11-28T06:56:14.116Z,8.49
2022-11-28T06:58:41.794Z,8.32
2022-11-28T07:01:14.211Z,8.34
2022-11-28T07:03:41.968Z,8.61
2022-11-28T07:06:09.538Z,8.74
2022-11-28T07:08:37.044Z,8.94
2022-11-28T07:11:16.422Z,8.69
2022-11-28T07:13:45.892Z,8.82
2022-11-28T07:16:17.971Z,8.93
2022-11-28T07:18:45.360Z,9.01
2022-11-28T07:21:14.629Z,8.80
2022-11-28T07:23:42.743Z,9.06
2022-11-28T07:26:10.513Z,9.24
2022-11-28T07:28:38.107Z,9.14
2022-11-28T07:31:27.848Z,9.03
2022-11-28T07:33:55.468Z,9.23
2022-11-28T07:36:26.896Z,9.22
2022-11-28T07:38:55.884Z,8.69
2022-11-28T07:41:26.521Z,8.91
2022-11-28T07:43:56.165Z,9.10
2022-11-28T07:46:24.075Z,8.87
2022-11-28T07:48:51.610Z,9.23
2022-11-28T07:51:23.394Z,9.06
2022-11-28T07:53:51.088Z,8.79
2022-11-28T07:56:20.541Z,9.02
2022-11-28T07:58:47.960Z,9.20
2022-11-28T08:01:17.195Z,9.03
2022-11-28T08:03:44.858Z,9.04
2022-11-28T08:06:14.272Z,9.04
2022-11-28T08:08:41.684Z,8.98
2022-11-28T08:11:09.491Z,8.62
2022-11-28T08:13:37.385Z,8.80
2022-11-28T08:16:06.673Z,9.05
2022-11-28T08:18:35.125Z,8.84
2022-11-28T08:21:07.026Z,8.96
2022-11-28T08:23:34.732Z,8.71
2022-11-28T08:26:02.870Z,8.68
2022-11-28T08:28:30.314Z,8.59
2022-11-28T08:30:59.466Z,8.99
2022-11-28T08:33:26.956Z,8.71
2022-11-28T08:35:54.264Z,8.59
2022-11-28T08:38:21.914Z,8.55
2022-11-28T08:40:49.286Z,8.58
2022-11-28T08:43:16.770Z,8.50
2022-11-28T08:45:44.426Z,8.47
2022-11-28T08:48:11.806Z,8.73
2022-11-28T08:50:45.031Z,8.92
2022-11-28T08:53:18.521Z,8.90
2022-11-28T08:55:46.144Z,8.78
2022-11-28T08:58:13.947Z,8.91
2022-11-28T09:00:42.601Z,8.59
2022-11-28T09:03:19.348Z,8.77
2022-11-28T09:05:47.209Z,9.00
2022-11-28T09:08:15.718Z,8.97
2022-11-28T09:10:43.798Z,9.09
2022-11-28T09:13:11.655Z,8.84
2022-11-28T09:15:42.520Z,9.29
2022-11-28T09:18:09.988Z,9.30
2022-11-28T09:20:37.629Z,9.45
2022-11-28T09:23:05.437Z,9.49
2022-11-28T09:25:35.335Z,9.77
2022-11-28T09:28:02.920Z,9.67
2022-11-28T09:30:30.349Z,9.57
2022-11-28T09:32:57.698Z,9.74
2022-11-28T09:35:25.310Z,9.60
2022-11-28T09:37:52.687Z,9.73
2022-11-28T09:40:40.452Z,9.74
2022-11-28T09:43:38.431Z,9.48
2022-11-28T09:46:07.444Z,9.57
2022-11-28T09:48:51.044Z,9.48
2022-11-28T09:51:31.726Z,9.47
2022-11-28T09:54:14.016Z,9.39
2022-11-28T09:56:41.427Z,9.36
2022-11-28T09:59:21.159Z,8.72
2022-11-28T10:02:02.862Z,7.22
2022-11-28T10:04:56.744Z,7.45
2022-11-28T10:07:39.981Z,8.58
2022-11-28T10:10:29.547Z,6.90
2022-11-28T10:13:11.653Z,8.67
2022-11-28T10:15:59.855Z,8.16
2022-11-28T10:18:39.274Z,8.45
2022-11-28T10:21:29.976Z,8.94
2022-11-28T10:23:59.359Z,8.56
2022-11-28T10:26:32.229Z,8.13
2022-11-28T10:29:00.264Z,8.40
2022-11-28T10:31:36.574Z,8.61
2022-11-28T10:34:21.160Z,8.68
2022-11-28T10:37:01.214Z,8.84
2022-11-28T10:39:28.612Z,8.71
2022-11-28T10:42:12.082Z,8.79
2022-11-28T10:45:05.163Z,8.39
2022-11-28T10:47:51.138Z,8.48
2022-11-28T10:50:35.287Z,9.06
2022-11-28T10:53:25.741Z,8.60
2022-11-28T10:56:06.149Z,8.69
2022-11-28T10:58:50.306Z,8.85
2022-11-28T11:01:17.686Z,9.22
2022-11-28T11:03:45.321Z,8.83
2022-11-28T11:06:13.059Z,8.63
2022-11-28T11:08:40.846Z,9.06
2022-11-28T11:11:30.356Z,9.14
2022-11-28T11:14:10.599Z,9.42
2022-11-28T11:16:47.538Z,8.60
2022-11-28T11:19:30.711Z,9.17
2022-11-28T11:22:21.893Z,9.45
2022-11-28T11:25:15.349Z,9.58
2022-11-28T11:27:59.870Z,9.55
2022-11-28T11:30:38.825Z,8.69
2022-11-28T11:33:07.218Z,9.07
2022-11-28T11:35:35.837Z,9.50
2022-11-28T11:38:21.317Z,9.49
2022-11-28T11:40:49.645Z,8.63
2022-11-28T11:43:23.029Z,9.09
2022-11-28T11:46:04.660Z,9.20
2022-11-28T11:48:39.880Z,9.06
2022-11-28T11:51:20.646Z,8.75
2022-11-28T11:53:47.985Z,9.10
2022-11-28T11:56:15.577Z,9.18
2022-11-28T11:58:51.289Z,8.70
2022-11-28T12:01:19.018Z,8.27
2022-11-28T12:03:53.538Z,7.62
2022-11-28T12:06:23.606Z,7.11
2022-11-28T12:08:58.112Z,7.58
2022-11-28T12:11:27.642Z,7.88
2022-11-28T12:13:55.778Z,7.43
2022-11-28T12:16:32.120Z,8.40
2022-11-28T12:19:18.243Z,8.19
2022-11-28T12:22:12.119Z,7.87
2022-11-28T12:24:52.949Z,8.54
2022-11-28T12:27:31.960Z,8.41
2022-11-28T12:30:19.328Z,8.67
2022-11-28T12:33:08.451Z,9.01
2022-11-28T12:35:40.975Z,8.16
2022-11-28T12:38:26.676Z,6.95
2022-11-28T12:41:32.571Z,8.45
2022-11-28T12:44:18.863Z,8.91
2022-11-28T12:47:08.133Z,6.81
2022-11-28T12:50:11.703Z,7.59
2022-11-28T12:52:49.396Z,8.06
2022-11-28T12:55:16.765Z,8.31
2022-11-28T12:57:49.278Z,8.00
2022-11-28T13:00:19.997Z,6.99
2022-11-28T13:03:08.616Z,7.36
2022-11-28T13:05:44.169Z,8.16
2022-11-28T13:08:49.374Z,8.72
2022-11-28T13:11:35.301Z,8.56
2022-11-28T13:14:31.550Z,8.15
2022-11-28T13:17:07.395Z,8.53
2022-11-28T13:19:48.945Z,8.59
2022-11-28T13:22:24.176Z,8.36
2022-11-28T13:25:27.323Z,8.60
2022-11-28T13:27:57.694Z,8.65
2022-11-28T13:30:26.516Z,7.73
2022-11-28T13:32:59.971Z,8.04
2022-11-28T13:35:27.867Z,7.72
2022-11-28T13:41:18.095Z,8.45
2022-11-28T13:44:07.984Z,8.17
2022-11-28T13:46:35.694Z,8.51
2022-11-28T13:49:15.247Z,8.56
2022-11-28T13:51:43.259Z,8.44
2022-11-28T13:54:22.854Z,7.97
2022-11-28T13:57:12.488Z,7.73
2022-11-28T13:59:39.893Z,7.60
2022-11-28T14:02:32.589Z,7.65
2022-11-28T14:05:00.404Z,8.04
2022-11-28T14:07:32.148Z,7.94
2022-11-28T14:10:24.215Z,8.40
2022-11-28T14:13:29.732Z,8.65
2022-11-28T14:16:11.416Z,8.75
2022-11-28T14:19:09.663Z,8.36
2022-11-28T14:21:49.498Z,7.34
2022-11-28T14:24:41.347Z,7.46
2022-11-28T14:27:15.785Z,8.09
2022-11-28T14:29:43.208Z,8.32
2022-11-28T14:32:40.631Z,8.36
2022-11-28T14:35:37.996Z,7.82
2022-11-28T14:38:31.304Z,8.15
2022-11-28T14:41:00.210Z,8.07
2022-11-28T14:43:32.642Z,8.22
2022-11-28T14:46:16.061Z,7.89
2022-11-28T14:48:58.940Z,7.87
2022-11-28T14:51:48.298Z,8.25
2022-11-28T14:54:57.348Z,8.16
2022-11-28T14:57:38.081Z,8.20
2022-11-28T15:00:08.137Z,7.91
2022-11-28T15:02:48.734Z,8.05
2022-11-28T15:05:34.982Z,7.28
2022-11-28T15:08:14.944Z,6.92
2022-11-28T15:11:13.664Z,7.48
2022-11-28T15:13:50.561Z,7.85
2022-11-28T15:16:18.962Z,7.98
2022-11-28T15:18:49.046Z,7.78
2022-11-28T15:21:17.180Z,7.56
2022-11-28T15:23:46.966Z,7.58
2022-11-28T15:26:28.463Z,7.89
2022-11-28T15:29:24.522Z,7.77
2022-11-28T15:31:54.805Z,7.22
2022-11-28T15:34:33.586Z,6.99
2022-11-28T15:37:02.366Z,6.59
2022-11-28T15:39:39.936Z,5.98
2022-11-28T15:42:09.591Z,5.42
2022-11-28T15:44:37.778Z,5.51
2022-11-28T15:47:05.432Z,5.43
2022-11-28T15:49:34.273Z,5.92
2022-11-28T15:52:03.364Z,6.48
2022-11-28T15:54:38.219Z,6.61
2022-11-28T15:57:06.564Z,6.96
2022-11-28T15:59:34.113Z,6.86
2022-11-28T16:02:04.627Z,7.18
2022-11-28T16:04:32.268Z,6.73
2022-11-28T16:06:59.754Z,6.97
2022-11-28T16:09:33.894Z,6.72
2022-11-28T16:12:02.344Z,7.15
2022-11-28T16:14:36.368Z,6.72
2022-11-28T16:17:09.493Z,7.34
2022-11-28T16:19:37.297Z,7.24
2022-11-28T16:22:06.499Z,7.70
2022-11-28T16:24:43.293Z,6.88
2022-11-28T16:27:41.526Z,7.18
2022-11-28T16:30:29.816Z,7.32
2022-11-28T16:32:57.729Z,7.54
2022-11-28T16:35:28.955Z,6.74
2022-11-28T16:38:06.112Z,6.51
2022-11-28T16:40:33.451Z,6.44
2022-11-28T16:43:02.984Z,6.98
2022-11-28T16:45:33.389Z,6.84
2022-11-28T16:48:09.487Z,7.25
2022-11-28T16:50:36.924Z,7.58
2022-11-28T16:53:04.758Z,7.06
2022-11-28T16:55:32.371Z,7.39
2022-11-28T16:58:21.755Z,7.41
2022-11-28T17:00:58.193Z,6.49
2022-11-28T17:03:46.030Z,6.78
2022-11-28T17:06:19.276Z,7.13
2022-11-28T17:08:46.661Z,6.96
2022-11-28T17:11:14.600Z,7.46
2022-11-28T17:13:42.023Z,7.39
2022-11-28T17:16:27.804Z,7.29
2022-11-28T17:18:55.511Z,6.70
2022-11-28T17:21:43.224Z,7.15
2022-11-28T17:24:27.801Z,6.42
2022-11-28T17:26:55.189Z,6.56
2022-11-28T17:29:22.882Z,5.50
2022-11-28T17:31:50.289Z,6.34
2022-11-28T17:34:19.597Z,6.76
2022-11-28T17:36:47.918Z,6.04
2022-11-28T17:39:15.541Z,4.27
2022-11-28T17:41:43.116Z,5.36
2022-11-28T17:44:21.192Z,5.59
2022-11-28T17:46:52.237Z,5.53
2022-11-28T17:49:19.907Z,5.42
2022-11-28T17:51:49.201Z,5.18
2022-11-28T17:54:17.903Z,5.09
2022-11-28T17:56:47.310Z,4.55
2022-11-28T17:59:15.570Z,5.08
2022-11-28T18:01:44.140Z,5.87
2022-11-28T18:04:11.888Z,6.22
2022-11-28T18:06:39.383Z,6.08
2022-11-28T18:09:11.587Z,6.50
2022-11-28T18:11:40.655Z,6.24
2022-11-28T18:14:09.131Z,6.59
2022-11-28T18:16:36.747Z,6.24
2022-11-28T18:19:04.380Z,5.75
2022-11-28T18:21:32.390Z,5.39
2022-11-28T18:23:59.803Z,5.66
2022-11-28T18:26:27.470Z,5.40
2022-11-28T18:28:54.856Z,5.63
2022-11-28T18:31:24.487Z,6.04
2022-11-28T18:33:55.121Z,5.67
2022-11-28T18:36:25.974Z,5.60
2022-11-28T18:39:01.972Z,5.43
2022-11-28T18:41:29.368Z,5.75
2022-11-28T18:43:58.761Z,5.33
2022-11-28T18:46:26.723Z,5.49
2022-11-28T18:48:54.135Z,5.33
2022-11-28T18:51:23.761Z,5.53
2022-11-28T18:53:51.463Z,4.41
2022-11-28T18:56:19.214Z,4.53
2022-11-28T18:58:53.062Z,3.95
2022-11-28T19:01:25.523Z,5.18
2022-11-28T19:03:56.047Z,4.63
2022-11-28T19:06:23.771Z,4.79
2022-11-28T19:08:58.744Z,4.59
2022-11-28T19:11:28.541Z,5.17
2022-11-28T19:13:56.639Z,4.84
2022-11-28T19:16:25.988Z,5.54
2022-11-28T19:18:53.707Z,5.36
2022-11-28T19:21:22.836Z,5.89
2022-11-28T19:23:50.243Z,6.15
2022-11-28T19:26:19.690Z,5.50
2022-11-28T19:28:48.103Z,4.63
2022-11-28T19:31:17.155Z,4.86
2022-11-28T19:33:44.779Z,5.73
2022-11-28T19:36:13.236Z,5.82
2022-11-28T19:38:41.113Z,6.21
2022-11-28T19:41:13.677Z,6.02
2022-11-28T19:43:41.427Z,6.11
2022-11-28T19:46:09.510Z,6.03
2022-11-28T19:48:37.277Z,5.78
2022-11-28T19:51:04.979Z,5.84
2022-11-28T19:53:33.901Z,5.64
2022-11-28T19:56:05.552Z,5.70
2022-11-28T19:58:36.583Z,4.57
2022-11-28T20:01:08.663Z,5.47
2022-11-28T20:03:36.875Z,5.46
2022-11-28T20:06:11.778Z,4.93
2022-11-28T20:08:39.577Z,6.04
2022-11-28T20:11:08.754Z,5.40
2022-11-28T20:13:36.368Z,4.88
2022-11-28T20:16:05.010Z,5.47
2022-11-28T20:18:32.675Z,5.04
2022-11-28T20:21:12.919Z,5.53
2022-11-28T20:23:41.652Z,5.30
2022-11-28T20:26:09.290Z,5.07
2022-11-28T20:28:37.863Z,5.50
2022-11-28T20:31:06.019Z,5.33
2022-11-28T20:33:33.663Z,5.89
2022-11-28T20:36:08.204Z,5.63
2022-11-28T20:38:35.902Z,5.74
2022-11-28T20:41:04.704Z,4.47
2022-11-28T20:43:32.352Z,5.41
2022-11-28T20:46:16.447Z,5.79
2022-11-28T20:48:43.957Z,4.48
2022-11-28T20:51:13.140Z,5.49
2022-11-28T20:53:41.389Z,5.50
2022-11-28T20:56:11.506Z,5.36
2022-11-28T20:58:39.089Z,5.05
2022-11-28T21:01:06.545Z,4.25
2022-11-28T21:03:34.212Z,4.86
2022-11-28T21:06:01.913Z,5.53
2022-11-28T21:08:33.754Z,5.99
2022-11-28T21:11:05.922Z,5.34
2022-11-28T21:13:33.598Z,5.95
2022-11-28T21:16:08.886Z,5.05
2022-11-28T21:18:36.899Z,5.63
2022-11-28T21:21:11.839Z,4.65
2022-11-28T21:23:39.426Z,4.62
2022-11-28T21:26:09.245Z,5.15
2022-11-28T21:28:36.946Z,5.21
2022-11-28T21:31:09.354Z,5.70
2022-11-28T21:33:36.712Z,5.43
2022-11-28T21:36:04.610Z,4.80
2022-11-28T21:38:32.287Z,5.36
2022-11-28T21:40:59.616Z,4.90
2022-11-28T21:43:30.083Z,4.56
2022-11-28T21:46:04.621Z,4.23
2022-11-28T21:48:32.146Z,4.66
2022-11-28T21:50:59.904Z,4.28
2022-11-28T21:53:28.855Z,5.21
2022-11-28T21:55:56.224Z,5.64
2022-11-28T21:58:26.827Z,5.79
2022-11-28T22:01:01.876Z,6.04
2022-11-28T22:03:29.733Z,6.16
2022-11-28T22:06:01.809Z,6.43
2022-11-28T22:08:29.678Z,6.56
2022-11-28T22:11:03.619Z,6.29
2022-11-28T22:13:31.393Z,6.16
2022-11-28T22:15:59.002Z,5.28
2022-11-28T22:18:28.832Z,6.09
2022-11-28T22:21:06.483Z,5.98
2022-11-28T22:23:37.651Z,6.10
2022-11-28T22:26:05.620Z,5.51
2022-11-28T22:28:33.894Z,6.21
2022-11-28T22:31:08.776Z,6.35
2022-11-28T22:33:36.278Z,5.30
2022-11-28T22:36:08.618Z,6.30
2022-11-28T22:38:35.944Z,6.02
2022-11-28T22:41:10.908Z,5.74
2022-11-28T22:43:38.457Z,5.47
2022-11-28T22:46:06.376Z,5.55
2022-11-28T22:48:34.511Z,5.49
2022-11-28T22:51:11.876Z,4.62
2022-11-28T22:53:39.484Z,4.65
2022-11-28T22:56:11.281Z,4.47
2022-11-28T22:58:42.713Z,5.12
2022-11-28T23:01:17.287Z,5.12
2022-11-28T23:03:45.644Z,5.18
2022-11-28T23:06:15.065Z,5.70
2022-11-28T23:08:42.879Z,5.53
2022-11-28T23:11:15.459Z,5.88
2022-11-28T23:13:43.043Z,5.47
2022-11-28T23:16:24.650Z,5.71
2022-11-28T23:18:54.315Z,5.83
2022-11-28T23:21:22.781Z,4.30
2022-11-28T23:23:50.204Z,3.88
2022-11-28T23:26:19.413Z,4.96
2022-11-28T23:28:47.800Z,4.08
2022-11-28T23:31:25.724Z,4.74
2022-11-28T23:33:54.416Z,5.09
2022-11-28T23:36:23.681Z,5.49
2022-11-28T23:38:52.576Z,4.91
2022-11-28T23:41:20.178Z,4.14
2022-11-28T23:43:47.525Z,5.23
2022-11-28T23:46:15.156Z,5.08
2022-11-28T23:48:43.724Z,5.27
2022-11-28T23:51:12.836Z,5.48
2022-11-28T23:53:40.330Z,5.23
2022-11-28T23:56:24.383Z,4.07
2022-11-28T23:58:52.036Z,4.04
